Terminal Aerodrome Forecast
Issued by NWS Twin Cities, MN

Home | Current Version | Previous Version | Text Only | Print | Product List | Glossary Off
Versions: 1 2 3 4 5 6 7 8 9 10 11 12

248
FTUS43 KMPX 162320
TAFSTC
TAF
KSTC 162320Z 1700/1724 19008KT P6SM SKC
     FM170500 26004KT P6SM FEW250
     FM171500 19010KT P6SM SKC=

USA.gov is the U.S. government's official web portal to all federal, state and local government web resources and services.